Latest Weather Observations for Mount Nowa Nowa

IDV60801

Issued at 3:35 am EST Thursday 24 July 2014 (issued every 30 minutes, with the page automatically refreshed every 10 minutes)

About weather observations | Map of weather stations | Latest weather observations for VIC | Other Formats
Station Details ID: 084144 Name: MOUNT NOWA NOWA Lat: -37.69 Lon: 148.09 Height: 350.0 m
Data from the previous 72 hours. | See also: Recent months at Mount Nowa Nowa
Date/Time
EST
Temp
°C
App
Temp
°C
Dew
Point
Rel
Hum
%
Delta-T
°C
Wind Press
QNH
hPa
Press
MSL
hPa
Rain
since 9 am
mm
Dir
 
Spd
km/h
Gust
km/h
Spd
kts
Gust
kts
24/03:30am 7.8 3.5 0.8 61 2.9 N 13 22 7 12 - - 0.0
24/03:00am 8.2 4.0 1.4 62 2.8 NNW 13 22 7 12 - - 0.0
24/02:30am 8.5 3.5 1.6 62 2.9 N 17 30 9 16 - - 0.0
24/02:00am 8.3 4.1 1.7 63 2.8 N 13 26 7 14 - - 0.0
24/01:30am 8.8 4.2 1.7 61 3.0 N 15 24 8 13 - - 0.0
24/01:00am 8.4 4.0 0.6 58 3.2 N 13 19 7 10 - - 0.0
24/12:30am 9.0 5.5 1.0 57 3.3 NNE 9 19 5 10 - - 0.0
24/12:00am 9.0 4.6 2.8 65 2.7 N 15 24 8 13 - - 0.0
 
Date/Time
EST
Temp
°C
App
Temp
°C
Dew
Point
Rel
Hum
%
Delta-T
°C
Wind Press
QNH
hPa
Press
MSL
hPa
Rain
since 9 am
mm
Dir
 
Spd
km/h
Gust
km/h
Spd
kts
Gust
kts
23/11:30pm 8.8 4.8 3.0 67 2.5 N 13 22 7 12 - - 0.0
23/11:00pm 8.2 4.7 3.7 73 2.0 N 11 19 6 10 - - 0.0
23/10:30pm 8.3 4.8 3.4 71 2.1 N 11 15 6 8 - - 0.0
23/10:00pm 8.7 5.5 3.3 69 2.4 NNE 9 17 5 9 - - 0.0
23/09:30pm 8.7 5.8 4.5 75 1.9 N 9 13 5 7 - - 0.0
23/09:00pm 8.4 7.1 7.5 94 0.4 NE 4 6 2 3 - - 0.0
23/08:30pm 8.1 6.2 7.7 97 0.2 ENE 7 9 4 5 - - 0.0
23/08:00pm 8.0 5.7 7.6 97 0.2 E 9 15 5 8 - - 0.0
23/07:30pm 8.0 5.4 7.6 97 0.2 E 11 17 6 9 - - 0.0
23/07:00pm 8.0 5.3 7.4 96 0.3 E 11 19 6 10 - - 0.0
23/06:30pm 8.1 5.4 7.5 96 0.3 E 11 15 6 8 - - 0.0
23/06:00pm 7.9 5.1 7.1 95 0.4 E 11 15 6 8 - - 0.0
23/05:30pm 8.0 5.2 6.9 93 0.5 E 11 15 6 8 - - 0.0
23/05:00pm 8.6 6.2 7.1 90 0.7 E 9 13 5 7 - - 0.0
23/04:30pm 9.6 7.7 7.4 86 1.1 E 7 9 4 5 - - 0.0
23/04:00pm 10.8 9.5 7.5 80 1.6 E 4 6 2 3 - - 0.0
23/03:30pm 12.0 10.7 7.5 74 2.2 E 4 9 2 5 - - 0.0
23/03:00pm 12.2 11.2 7.3 72 2.4 E 2 7 1 4 - - 0.0
23/02:30pm 12.5 11.4 7.0 69 2.7 E 2 6 1 3 - - 0.0
23/02:00pm 12.9 11.3 6.5 65 3.1 E 4 7 2 4 - - 0.0
23/01:30pm 12.7 10.7 6.3 65 3.1 E 6 11 3 6 - - 0.0
23/01:00pm 12.3 10.3 6.1 66 3.0 E 6 11 3 6 - - 0.0
23/12:30pm 12.2 10.1 6.0 66 3.0 E 6 9 3 5 - - 0.0
23/12:00pm 11.8 10.1 5.9 67 2.8 E 4 11 2 6 - - 0.0
23/11:30am 10.8 8.9 4.7 66 2.8 ENE 4 9 2 5 - - 0.0
23/11:00am 10.2 8.1 3.9 65 2.8 NE 4 7 2 4 - - 0.0
23/10:30am 9.3 7.1 3.3 66 2.6 ENE 4 9 2 5 - - 0.0
23/10:00am 7.5 4.2 2.2 69 2.2 N 9 15 5 8 - - 0.0
23/09:30am 6.5 3.1 1.6 71 2.0 N 9 15 5 8 - - 0.0
23/09:00am 6.2 2.8 1.7 73 1.9 N 9 15 5 8 - - 0.0
23/08:30am 5.1 1.7 1.6 78 1.4 N 9 19 5 10 - - 0.0
23/08:00am 4.7 0.8 1.4 79 1.3 N 11 19 6 10 - - 0.0
23/07:30am 4.9 1.0 1.4 78 1.4 N 11 19 6 10 - - 0.0
23/07:00am 4.6 0.8 1.8 82 1.1 NNW 11 22 6 12 - - 0.0
23/06:30am 5.0 1.2 2.0 81 1.2 N 11 19 6 10 - - 0.0
23/06:00am 4.7 1.4 2.2 84 1.0 N 9 15 5 8 - - 0.0
23/05:30am 4.4 1.1 2.4 87 0.8 N 9 17 5 9 - - 0.0
23/05:00am 4.3 0.6 2.3 87 0.8 NNW 11 19 6 10 - - 0.0
23/04:30am 4.6 0.9 2.6 87 0.8 NNW 11 19 6 10 - - 0.0
23/04:00am 5.6 2.1 3.4 86 0.9 N 11 19 6 10 - - 0.0
23/03:30am 5.5 1.6 3.3 86 0.9 NNW 13 20 7 11 - - 0.0
23/03:00am 5.9 2.1 3.9 87 0.9 NNW 13 22 7 12 - - 0.0
23/02:30am 6.0 2.2 3.8 86 1.0 NNW 13 20 7 11 - - 0.0
23/02:00am 6.0 2.2 4.0 87 0.9 NNW 13 22 7 12 - - 0.0
23/01:30am 5.9 2.5 4.2 89 0.7 N 11 17 6 9 - - 0.0
23/01:00am 6.2 3.2 4.2 87 0.9 N 9 13 5 7 - - 0.0
23/12:30am 5.8 2.8 4.1 89 0.7 N 9 15 5 8 - - 0.0
23/12:00am 6.0 3.0 4.0 87 0.9 NNW 9 15 5 8 - - 0.0
 
Date/Time
EST
Temp
°C
App
Temp
°C
Dew
Point
Rel
Hum
%
Delta-T
°C
Wind Press
QNH
hPa
Press
MSL
hPa
Rain
since 9 am
mm
Dir
 
Spd
km/h
Gust
km/h
Spd
kts
Gust
kts
22/11:30pm 6.8 3.8 4.3 84 1.1 N 9 13 5 7 - - 0.0
22/11:00pm 7.0 4.6 4.5 84 1.1 N 6 11 3 6 - - 0.0
22/10:30pm 7.2 4.7 4.7 84 1.1 N 7 11 4 6 - - 0.0
22/10:00pm 7.6 5.3 4.9 83 1.2 N 6 7 3 4 - - 0.0
22/09:30pm 7.7 5.5 5.2 84 1.1 N 6 7 3 4 - - 0.0
22/09:00pm 7.7 6.7 5.5 86 1.0 CALM 0 0 0 0 - - 0.0
22/08:30pm 7.8 6.0 5.6 86 1.0 SSE 4 6 2 3 - - 0.0
22/08:00pm 8.2 6.1 5.8 85 1.1 SSE 6 7 3 4 - - 0.0
22/07:30pm 8.2 6.2 6.2 87 0.9 SSE 6 7 3 4 - - 0.0
22/07:00pm 8.2 6.0 6.0 86 1.0 SSE 7 9 4 5 - - 0.0
22/06:30pm 8.2 5.9 5.8 85 1.1 SSE 7 11 4 6 - - 0.0
22/06:00pm 8.1 5.7 5.2 82 1.3 SSE 7 9 4 5 - - 0.0
22/05:30pm 8.2 5.7 4.6 78 1.6 SSE 7 9 4 5 - - 0.0
22/05:00pm 8.5 6.2 4.7 77 1.7 SSE 6 7 3 4 - - 0.0
22/04:30pm 9.1 7.2 4.9 75 1.9 SSE 4 7 2 4 - - 0.0
22/04:00pm 9.8 8.5 5.8 76 1.9 SSE 2 4 1 2 - - 0.0
22/03:30pm 10.1 8.4 5.7 74 2.1 S 4 6 2 3 - - 0.0
22/03:00pm 11.1 9.4 6.0 71 2.4 S 4 9 2 5 - - 0.0
22/02:30pm 12.4 11.1 5.8 64 3.2 S 2 7 1 4 - - 0.0
22/02:00pm 11.7 9.9 5.6 66 2.9 SW 4 6 2 3 - - 0.0
22/01:30pm 12.1 9.9 5.3 63 3.2 W 6 9 3 5 - - 0.0
22/01:00pm 12.1 10.6 6.6 69 2.7 WNW 4 7 2 4 - - 0.0
22/12:30pm 10.3 9.1 6.5 77 1.8 WSW 2 6 1 3 - - 0.0
22/12:00pm 9.9 8.2 5.9 76 1.9 WNW 4 7 2 4 - - 0.0
22/11:30am 8.7 6.5 5.3 79 1.6 NW 6 7 3 4 - - 0.0
22/11:00am 7.0 4.4 4.3 83 1.2 NW 7 11 4 6 - - 0.0
22/10:30am 6.2 3.5 3.5 83 1.2 NW 7 13 4 7 - - 0.0
22/10:00am 6.0 2.4 3.2 82 1.2 NNW 11 17 6 9 - - 0.0
22/09:30am 5.2 1.6 2.7 84 1.0 NW 11 15 6 8 - - 0.0
22/09:00am 4.6 0.9 2.3 85 0.9 NW 11 19 6 10 - - 0.0
22/08:30am 4.3 0.6 2.2 86 0.9 NNW 11 17 6 9 - - 0.0
22/08:00am 4.4 0.3 2.4 87 0.8 NNW 13 17 7 9 - - 0.0
22/07:30am 4.3 0.6 2.5 88 0.7 NW 11 17 6 9 - - 0.0
22/07:00am 4.2 0.5 2.4 88 0.7 NNW 11 17 6 9 - - 0.0
22/06:30am 4.2 0.5 2.4 88 0.7 NNW 11 19 6 10 - - 0.0
22/06:00am 4.4 0.7 2.6 88 0.7 NNW 11 17 6 9 - - 0.0
22/05:30am 4.5 0.4 2.5 87 0.8 NNW 13 19 7 10 - - 0.0
22/05:00am 5.2 1.6 3.2 87 0.8 NNW 11 19 6 10 - - 0.0
22/04:30am 5.3 1.8 3.3 87 0.8 NNW 11 15 6 8 - - 0.0
22/04:00am 5.7 2.6 3.7 87 0.9 NNW 9 13 5 7 - - 0.0
22/03:30am 5.8 2.4 3.8 87 0.9 NNW 11 15 6 8 - - 0.0
22/03:00am 5.2 1.7 3.7 90 0.6 NNW 11 15 6 8 - - 0.0
22/02:30am 5.4 2.4 3.9 90 0.6 NNW 9 15 5 8 - - 0.0
22/02:00am 5.5 2.5 4.0 90 0.6 NNW 9 15 5 8 - - 0.0
22/01:30am 5.5 3.1 4.2 91 0.6 NNW 6 9 3 5 - - 0.0
22/01:00am 5.8 3.7 4.1 89 0.7 NNW 4 7 2 4 - - 0.0
22/12:30am 6.3 4.2 4.1 86 1.0 NW 4 4 2 2 - - 0.0
22/12:00am 6.3 4.2 4.1 86 1.0 NW 4 4 2 2 - - 0.0
 
Date/Time
EST
Temp
°C
App
Temp
°C
Dew
Point
Rel
Hum
%
Delta-T
°C
Wind Press
QNH
hPa
Press
MSL
hPa
Rain
since 9 am
mm
Dir
 
Spd
km/h
Gust
km/h
Spd
kts
Gust
kts
21/11:30pm 6.7 4.7 4.2 84 1.1 NW 4 6 2 3 - - 0.0
21/11:00pm 6.9 4.3 4.4 84 1.1 NW 7 11 4 6 - - 0.0
21/10:30pm 7.1 4.6 4.8 85 1.0 NW 7 9 4 5 - - 0.0
21/10:00pm 7.3 4.7 4.3 81 1.3 NNW 7 13 4 7 - - 0.0
21/09:30pm 7.6 5.0 3.3 74 1.9 N 6 7 3 4 - - 0.0
21/09:00pm 7.8 5.6 3.3 73 2.0 N 4 6 2 3 - - 0.0
21/08:30pm 7.8 5.7 3.7 75 1.8 E 4 4 2 2 - - 0.0
21/08:00pm 8.1 6.3 3.4 72 2.1 SSE 2 4 1 2 - - 0.0
21/07:30pm 7.8 5.9 2.7 70 2.2 SSE 2 4 1 2 - - 0.0
21/07:00pm 8.1 5.8 3.0 70 2.2 SSE 4 6 2 3 - - 0.0
21/06:30pm 7.9 5.5 2.2 67 2.4 SSE 4 7 2 4 - - 0.0
21/06:00pm 8.0 5.3 2.5 68 2.3 SSE 6 7 3 4 - - 0.0
21/05:30pm 7.9 5.3 4.1 77 1.7 SSE 7 11 4 6 - - 0.0
21/05:00pm 8.2 5.7 5.0 80 1.5 SSE 7 11 4 6 - - 0.0
21/04:30pm 8.8 6.6 5.5 80 1.5 SSE 6 9 3 5 - - 0.0
21/04:00pm 10.2 8.7 5.2 71 2.3 ESE 2 4 1 2 - - 0.0
21/03:30pm 11.0 9.5 5.1 67 2.7 E 2 6 1 3 - - 0.0
21/03:00pm 11.4 9.6 5.3 66 2.9 E 4 7 2 4 - - 0.0
21/02:30pm 11.5 9.7 5.6 67 2.8 E 4 7 2 4 - - 0.0
21/02:00pm 11.7 9.8 5.1 64 3.1 E 4 9 2 5 - - 0.0
21/01:30pm 11.4 9.4 4.6 63 3.1 E 4 7 2 4 - - 0.0
21/01:00pm 10.9 9.8 5.2 68 2.7 CALM 0 4 0 2 - - 0.0
21/12:30pm 10.2 8.9 3.9 65 2.8 CALM 0 0 0 0 - - 0.0
21/12:00pm 10.6 8.4 3.2 60 3.3 NE 4 7 2 4 - - 0.0
21/11:30am 10.3 8.6 3.8 64 2.9 N 2 7 1 4 - - 0.0
21/11:00am 9.9 8.6 4.3 68 2.5 CALM 0 0 0 0 - - 0.0
21/10:30am 9.0 7.0 4.2 72 2.2 NW 4 7 2 4 - - 0.0
21/10:00am 7.6 4.9 2.7 71 2.1 NNW 6 13 3 7 - - 0.0
21/09:30am 7.0 4.3 2.5 73 1.9 NNW 6 13 3 7 - - 0.0
21/09:00am 6.4 3.5 2.5 76 1.6 NNW 7 13 4 7 - - 0.0
21/08:30am 6.1 3.4 2.6 78 1.5 NNW 6 11 3 6 - - 0.0
21/08:00am 6.4 3.1 2.5 76 1.6 N 9 11 5 6 - - 0.0
21/07:30am 6.3 3.0 2.6 77 1.6 N 9 13 5 7 - - 0.0
21/07:00am 6.5 3.6 2.6 76 1.6 N 7 9 4 5 - - 0.0
21/06:30am 6.7 3.9 3.0 77 1.6 N 7 11 4 6 - - 0.0
21/06:00am 6.8 4.0 3.1 77 1.6 N 7 9 4 5 - - 0.0
21/05:30am 7.0 4.2 3.4 78 1.6 N 7 9 4 5 - - 0.0
21/05:00am 7.2 4.8 4.2 81 1.3 N 6 7 3 4 - - 0.0
21/04:30am 7.3 4.9 4.1 80 1.4 N 6 7 3 4 - - 0.0
21/04:00am 7.2 4.8 4.2 81 1.3 N 6 7 3 4 - - 0.0

Other Formats:

Comma delimited format used in spreadsheet applications
http://www.bom.gov.au/fwo/IDV60801/IDV60801.94930.axf

JavaScript Object Notation format (JSON) in row-major order
http://www.bom.gov.au/fwo/IDV60801/IDV60801.94930.json